createdAt,value
2022-11-05T00:01:09.951Z,29
2022-11-05T00:31:10.626Z,28
2022-11-05T01:01:10.841Z,26
2022-11-05T01:31:11.157Z,25
2022-11-05T02:01:11.828Z,27
2022-11-05T02:31:12.870Z,27
2022-11-05T03:01:13.279Z,26
2022-11-05T03:31:13.310Z,28
2022-11-05T04:01:13.778Z,31
2022-11-05T04:31:14.418Z,29
2022-11-05T05:01:15.545Z,35
2022-11-05T05:31:16.678Z,37
2022-11-05T06:01:17.146Z,37
2022-11-05T06:31:17.611Z,35
2022-11-05T07:01:17.563Z,34
2022-11-05T07:31:20.384Z,34
2022-11-05T08:01:21.781Z,38
2022-11-05T08:31:25.408Z,40
2022-11-05T09:01:30.240Z,40
2022-11-05T09:31:32.321Z,38
2022-11-05T10:01:33.718Z,41
2022-11-05T10:31:43.920Z,35
2022-11-05T11:01:42.410Z,34
2022-11-05T11:31:44.191Z,34
2022-11-05T12:02:38.811Z,33
2022-11-05T12:32:31.056Z,31
2022-11-05T13:02:27.904Z,33
2022-11-05T13:32:28.583Z,33
2022-11-05T14:02:33.137Z,26
2022-11-05T14:32:31.445Z,28
2022-11-05T15:02:29.855Z,31
2022-11-05T15:32:27.777Z,36
2022-11-05T16:02:22.863Z,36
2022-11-05T16:32:17.890Z,42
2022-11-05T17:02:17.102Z,50
2022-11-05T17:32:14.395Z,43
2022-11-05T18:02:11.901Z,47
2022-11-05T18:32:16.403Z,41
2022-11-05T19:02:17.421Z,44
2022-11-05T20:02:17.431Z,42
2022-11-05T20:32:17.459Z,45
2022-11-05T21:02:16.943Z,44
2022-11-05T21:32:17.525Z,42
2022-11-05T22:02:17.108Z,41
2022-11-05T22:32:17.559Z,42
2022-11-05T23:02:17.567Z,41
2022-11-05T23:32:19.252Z,39
